Time;durP1;ratioP1;P1;durP2;ratioP2;P2;SDS_P1;SDS_P2;PMS_P1;PMS_P2;Temp;Humidity;BMP_temperature;BMP_pressure;BME280_temperature;BME280_humidity;BME280_pressure;Samples;Min_cycle;Max_cycle;Signal;HPM_P1;HPM_P2
2022/03/20 00:01:37;;;;;;;22.50;16.87;;;;;;;3.82;61.46;152343.97;5040782;28;20482;-76
2022/03/20 00:04:12;;;;;;;22.90;17.03;;;;;;;3.84;61.07;152349.16;5046363;28;20437;-76
2022/03/20 00:06:48;;;;;;;20.73;16.70;;;;;;;3.85;61.32;152351.69;5061854;28;20464;-76
2022/03/20 00:09:23;;;;;;;25.13;17.23;;;;;;;3.84;61.47;152349.16;5066598;28;24386;-76
2022/03/20 00:11:59;;;;;;;23.07;16.67;;;;;;;3.83;60.86;152347.84;5051438;28;20455;-76
2022/03/20 00:14:36;;;;;;;23.43;16.70;;;;;;;3.85;61.19;152353.00;5036782;28;20462;-76
2022/03/20 00:17:12;;;;;;;22.67;16.23;;;;;;;3.85;61.29;152353.00;5038780;28;20467;-76
2022/03/20 00:19:47;;;;;;;21.10;16.40;;;;;;;3.84;60.77;152350.41;5040750;28;20497;-76
2022/03/20 00:22:24;;;;;;;21.07;16.97;;;;;;;3.86;61.03;152354.28;5050066;28;20451;-76
2022/03/20 00:24:59;;;;;;;23.00;15.43;;;;;;;3.85;60.97;152351.69;5042678;28;20446;-76
2022/03/20 00:27:35;;;;;;;28.00;18.07;;;;;;;3.82;60.67;152343.97;5066156;28;20867;-76
2022/03/20 00:30:12;;;;;;;20.30;15.73;;;;;;;3.81;60.16;152341.41;5057922;28;20499;-76
2022/03/20 00:32:48;;;;;;;21.50;16.33;;;;;;;3.86;59.52;152354.28;5035114;28;20446;-76
2022/03/20 00:35:23;;;;;;;20.10;15.50;;;;;;;3.86;60.55;152354.28;5050772;28;20540;-76
2022/03/20 00:37:59;;;;;;;20.20;15.50;;;;;;;3.88;60.46;152360.72;5055475;28;20454;-76
2022/03/20 00:40:37;;;;;;;19.73;16.57;;;;;;;3.81;61.44;152341.41;5040249;28;20439;-76
2022/03/20 00:43:13;;;;;;;19.23;16.30;;;;;;;3.81;59.84;152341.41;5050678;28;20449;-76
2022/03/20 00:45:50;;;;;;;21.83;16.60;;;;;;;3.78;60.46;152333.69;5055184;28;20449;-76
2022/03/20 00:48:25;;;;;;;24.47;17.93;;;;;;;3.80;60.65;152340.13;5057857;28;20572;-76
2022/03/20 00:51:03;;;;;;;23.17;16.57;;;;;;;3.78;61.06;152333.69;5053886;28;20462;-76
2022/03/20 00:53:39;;;;;;;20.70;16.07;;;;;;;3.79;59.97;152336.22;5066587;28;20866;-76
2022/03/20 00:56:15;;;;;;;21.93;16.63;;;;;;;3.85;59.88;152351.69;5057262;28;20790;-77
2022/03/20 00:58:50;;;;;;;20.17;16.10;;;;;;;3.81;60.36;152341.41;5061251;28;20457;-76
2022/03/20 01:01:28;;;;;;;20.83;17.00;;;;;;;3.80;61.24;152338.81;5052431;28;20479;-76
2022/03/20 01:04:04;;;;;;;20.97;16.10;;;;;;;3.80;60.24;152338.81;5064547;28;20476;-76
2022/03/20 01:06:39;;;;;;;21.90;14.90;;;;;;;3.76;60.32;152329.78;5061098;28;20494;-76
2022/03/20 01:09:15;;;;;;;24.20;16.83;;;;;;;3.79;61.26;152337.53;5041665;28;20470;-76
2022/03/20 01:11:51;;;;;;;20.70;15.30;;;;;;;3.79;60.51;152337.53;5053766;28;20528;-76
2022/03/20 01:14:26;;;;;;;21.53;15.87;;;;;;;3.84;59.74;152350.41;5045396;28;20454;-77
2022/03/20 01:17:04;;;;;;;20.10;15.83;;;;;;;3.89;59.49;152362.00;5040510;28;20466;-76
2022/03/20 01:19:39;;;;;;;19.43;15.10;;;;;;;3.92;58.55;152371.00;5058078;28;20466;-76
2022/03/20 01:22:16;;;;;;;16.70;14.50;;;;;;;3.87;60.04;152356.81;5057908;28;20827;-76
2022/03/20 01:24:52;;;;;;;21.10;16.37;;;;;;;3.90;60.11;152364.56;5043010;28;20453;-76
2022/03/20 01:27:27;;;;;;;23.80;17.10;;;;;;;3.91;58.77;152367.16;5043502;28;20507;-76
2022/03/20 01:30:03;;;;;;;24.43;16.20;;;;;;;3.83;59.79;152347.84;5050585;28;20469;-76
2022/03/20 01:32:40;;;;;;;21.83;17.03;;;;;;;3.81;60.06;152341.41;5055381;28;20844;-76
2022/03/20 01:35:16;;;;;;;23.17;15.30;;;;;;;3.79;60.91;152336.22;5057979;28;20434;-76
2022/03/20 01:37:51;;;;;;;19.07;15.30;;;;;;;3.76;60.59;152329.78;5045467;28;20879;-76
2022/03/20 01:40:27;;;;;;;25.20;15.63;;;;;;;3.78;60.46;152334.97;5058495;28;20445;-77
2022/03/20 01:43:03;;;;;;;21.03;16.53;;;;;;;3.77;62.11;152331.09;5072390;28;20446;-76
2022/03/20 01:45:39;;;;;;;19.60;15.93;;;;;;;3.78;61.11;152333.69;5061752;28;20435;-76
2022/03/20 01:48:16;;;;;;;20.33;14.93;;;;;;;3.79;60.14;152336.22;5057202;28;20449;-76
2022/03/20 01:50:53;;;;;;;21.57;15.70;;;;;;;3.93;59.09;152373.59;5051674;28;20563;-76
2022/03/20 01:53:29;;;;;;;20.60;14.73;;;;;;;4.11;57.63;152418.66;5052704;28;20438;-76
2022/03/20 01:56:06;;;;;;;22.33;16.67;;;;;;;4.03;59.21;152399.34;5059003;28;20441;-76
2022/03/20 01:58:41;;;;;;;21.87;17.40;;;;;;;3.94;59.36;152376.19;5063246;28;20450;-76
2022/03/20 02:01:18;;;;;;;20.23;16.50;;;;;;;3.91;61.27;152367.16;5070827;28;20448;-76
2022/03/20 02:03:55;;;;;;;22.43;16.03;;;;;;;3.98;59.27;152386.47;5054326;28;20455;-76
2022/03/20 02:06:30;;;;;;;22.17;16.07;;;;;;;4.03;59.14;152398.03;5058097;28;20454;-76
2022/03/20 02:09:06;;;;;;;20.93;16.33;;;;;;;4.03;58.13;152399.34;5050734;28;22113;-76
2022/03/20 02:11:43;;;;;;;19.47;15.80;;;;;;;4.11;58.55;152419.94;5059544;28;20454;-76
2022/03/20 02:14:19;;;;;;;22.27;16.07;;;;;;;4.11;58.10;152418.66;5071701;28;20451;-76
2022/03/20 02:16:55;;;;;;;23.13;16.70;;;;;;;4.13;58.38;152423.84;5053418;28;20921;-76
2022/03/20 02:19:34;;;;;;;22.17;17.10;;;;;;;4.08;58.46;152410.91;5056668;28;20941;-76
2022/03/20 02:22:11;;;;;;;21.57;16.00;;;;;;;4.08;58.05;152410.91;5053303;28;20459;-76
2022/03/20 02:24:49;;;;;;;17.37;15.50;;;;;;;4.13;58.20;152425.09;5059261;28;20456;-74
2022/03/20 02:27:25;;;;;;;20.40;15.20;;;;;;;4.16;58.82;152431.53;5057242;28;20454;-76
2022/03/20 02:30:06;;;;;;;22.33;16.40;;;;;;;4.28;58.18;152462.47;5058231;28;20549;-76
2022/03/20 02:32:43;;;;;;;22.40;15.97;;;;;;;4.10;58.62;152417.34;5055868;28;20828;-76
2022/03/20 02:35:19;;;;;;;20.73;16.23;;;;;;;4.11;58.53;152418.66;5056405;28;20955;-76
2022/03/20 02:37:57;;;;;;;21.57;16.17;;;;;;;4.10;58.94;152417.34;5062439;28;20476;-76
2022/03/20 02:40:32;;;;;;;21.10;16.43;;;;;;;4.16;58.91;152432.81;5059763;28;20431;-77
2022/03/20 02:43:08;;;;;;;25.10;16.20;;;;;;;4.23;59.03;152450.88;5057455;28;20458;-77
2022/03/20 02:45:44;;;;;;;23.50;17.20;;;;;;;4.30;58.89;152468.91;5058019;28;20835;-76
2022/03/20 02:48:21;;;;;;;22.37;16.20;;;;;;;4.22;59.10;152447.00;5051596;28;20461;-76
2022/03/20 02:50:57;;;;;;;20.33;16.27;;;;;;;4.25;59.29;152454.72;5053202;28;20477;-76
2022/03/20 02:53:36;;;;;;;26.00;16.77;;;;;;;4.17;59.83;152434.13;5058719;28;20437;-76
2022/03/20 02:56:13;;;;;;;20.70;15.20;;;;;;;4.11;59.66;152419.94;5037316;28;20450;-76
2022/03/20 02:58:50;;;;;;;23.43;17.73;;;;;;;4.02;60.13;152395.50;5050344;28;20441;-76
2022/03/20 03:01:25;;;;;;;19.70;15.63;;;;;;;4.30;59.99;152468.91;5078934;28;20545;-76
2022/03/20 03:04:01;;;;;;;24.43;17.60;;;;;;;4.28;59.68;152462.47;5051279;28;20450;-76
2022/03/20 03:06:37;;;;;;;22.13;17.00;;;;;;;4.17;59.83;152434.13;5056948;28;20452;-76
2022/03/20 03:12:07;;;;;;;22.40;16.77;;;;;;;4.10;60.60;152417.34;5051971;28;20455;-76
2022/03/20 03:17:36;;;;;;;19.13;16.17;;;;;;;4.08;61.17;152410.91;5057578;28;20768;-76
2022/03/20 03:20:12;;;;;;;23.23;17.03;;;;;;;4.13;60.97;152423.84;5041205;28;20450;-76
2022/03/20 03:22:47;;;;;;;24.47;17.37;;;;;;;4.23;60.49;152449.59;5039632;28;20821;-76
2022/03/20 03:25:25;;;;;;;26.20;18.23;;;;;;;4.09;61.51;152413.50;5055959;28;20465;-76
2022/03/20 03:28:00;;;;;;;23.80;16.60;;;;;;;4.02;61.59;152395.50;5070202;28;20454;-76
2022/03/20 03:30:37;;;;;;;25.90;17.03;;;;;;;4.12;61.31;152421.25;5057588;28;21070;-76
2022/03/20 03:33:13;;;;;;;22.30;18.57;;;;;;;4.15;61.12;152428.97;5053666;28;20818;-77
2022/03/20 03:35:53;;;;;;;21.90;17.10;;;;;;;4.14;60.86;152427.69;5055161;28;20456;-76
2022/03/20 03:38:31;;;;;;;23.73;17.03;;;;;;;4.16;61.42;152432.81;5045249;28;20450;-76
2022/03/20 03:41:08;;;;;;;23.27;16.40;;;;;;;4.01;61.30;152394.19;5050825;28;20444;-76
2022/03/20 03:43:44;;;;;;;22.70;16.27;;;;;;;4.05;61.62;152403.22;5053382;28;20427;-76
2022/03/20 03:46:19;;;;;;;23.80;17.30;;;;;;;4.13;61.60;152425.09;5056697;28;20486;-76
2022/03/20 03:48:55;;;;;;;21.83;17.07;;;;;;;4.21;61.55;152444.41;5052877;28;20479;-76
2022/03/20 03:51:30;;;;;;;23.17;17.80;;;;;;;4.12;61.78;152421.25;5058430;28;20469;-76
2022/03/20 03:54:06;;;;;;;22.10;17.43;;;;;;;4.06;61.82;152405.78;5041517;28;20785;-76
2022/03/20 03:56:42;;;;;;;25.90;18.40;;;;;;;4.08;62.22;152410.91;5039532;28;20465;-76
2022/03/20 03:59:18;;;;;;;21.70;17.53;;;;;;;4.11;62.21;152418.66;5055680;28;21249;-76
2022/03/20 04:01:53;;;;;;;23.47;17.23;;;;;;;4.13;61.86;152423.84;5049711;28;21059;-76
2022/03/20 04:04:29;;;;;;;26.60;18.03;;;;;;;4.17;62.06;152434.13;5056726;28;20446;-76
2022/03/20 04:07:05;;;;;;;23.30;17.53;;;;;;;4.02;62.80;152396.78;5056698;28;20454;-76
2022/03/20 04:09:40;;;;;;;22.70;17.20;;;;;;;4.07;62.88;152408.38;5054303;28;20462;-76
2022/03/20 04:12:18;;;;;;;25.00;18.23;;;;;;;3.98;63.14;152385.16;5050649;28;20459;-76
2022/03/20 04:14:53;;;;;;;22.50;16.93;;;;;;;4.01;62.94;152392.91;5053473;28;20444;-76
2022/03/20 04:17:30;;;;;;;26.40;18.33;;;;;;;3.98;63.43;152386.47;5058815;28;20455;-76
2022/03/20 04:20:07;;;;;;;25.00;17.47;;;;;;;3.96;63.90;152381.31;5053226;28;20794;-76
2022/03/20 04:23:42;;;;;;;23.90;17.53;;;;;;;3.99;64.17;152389.06;5071871;28;20445;-76
2022/03/20 04:25:40;;;;;;;25.70;18.53;;;;;;;3.95;63.96;152377.44;5057288;28;20530;-76
2022/03/20 04:28:19;;;;;;;22.97;16.87;;;;;;;3.94;64.25;152374.88;5037957;28;20446;-77
2022/03/20 04:30:55;;;;;;;24.07;17.00;;;;;;;3.96;64.12;152380.03;5052481;28;20470;-76
2022/03/20 04:33:31;;;;;;;24.97;18.40;;;;;;;3.87;64.61;152358.13;5056777;28;20449;-76
2022/03/20 04:36:08;;;;;;;25.77;17.30;;;;;;;3.98;64.43;152385.16;5049727;28;20450;-76
2022/03/20 04:38:44;;;;;;;21.63;15.93;;;;;;;3.90;64.42;152365.84;5047440;28;20788;-76
2022/03/20 04:41:20;;;;;;;22.63;17.40;;;;;;;3.80;64.46;152338.81;5054513;28;20434;-77
2022/03/20 04:43:58;;;;;;;22.53;17.50;;;;;;;3.83;64.78;152346.56;5054243;28;20435;-76
2022/03/20 04:46:33;;;;;;;26.87;18.00;;;;;;;3.90;64.65;152365.84;5062444;28;20537;-76
2022/03/20 05:00:42;;;;;;;22.83;17.67;;;;;;;3.92;65.28;152369.75;5056444;28;20438;-74
2022/03/20 05:03:18;;;;;;;23.93;17.90;;;;;;;3.99;64.67;152389.06;5055759;28;20791;-76
2022/03/20 05:05:54;;;;;;;26.00;17.87;;;;;;;3.92;65.32;152369.75;5041318;28;20466;-76
2022/03/20 05:08:29;;;;;;;23.07;18.30;;;;;;;3.93;65.67;152372.28;5059550;28;20507;-76
2022/03/20 05:13:58;;;;;;;25.20;19.10;;;;;;;3.87;65.99;152358.13;5058953;28;20796;-77
2022/03/20 05:16:35;;;;;;;25.50;18.37;;;;;;;3.79;66.04;152336.22;5058579;28;20446;-74
2022/03/20 05:19:10;;;;;;;24.77;18.60;;;;;;;3.88;66.11;152359.44;5054064;28;20426;-76
2022/03/20 05:21:46;;;;;;;26.47;19.13;;;;;;;4.08;65.62;152410.91;5047315;28;20446;-76
2022/03/20 05:24:22;;;;;;;25.30;18.43;;;;;;;3.86;66.07;152355.56;5043734;28;20438;-76
2022/03/20 05:26:58;;;;;;;27.50;18.53;;;;;;;3.79;67.22;152337.53;5063381;28;20973;-76
2022/03/20 05:29:35;;;;;;;27.57;18.80;;;;;;;3.80;66.47;152340.13;5048830;28;20465;-75
2022/03/20 05:32:13;;;;;;;27.80;17.80;;;;;;;3.90;66.33;152365.84;5057773;28;20558;-76
2022/03/20 05:34:49;;;;;;;25.47;18.47;;;;;;;3.88;66.71;152359.44;5058260;28;20446;-77
2022/03/20 05:37:24;;;;;;;26.50;19.50;;;;;;;3.93;66.32;152372.28;5039926;28;20458;-76
2022/03/20 05:40:00;;;;;;;23.17;18.63;;;;;;;3.89;67.31;152362.00;5058134;28;20445;-76
2022/03/20 05:42:36;;;;;;;22.90;19.07;;;;;;;3.99;66.33;152389.06;5054665;28;20453;-76
2022/03/20 05:45:12;;;;;;;23.30;18.50;;;;;;;4.09;65.92;152413.50;5038995;28;20473;-76
2022/03/20 05:47:50;;;;;;;30.87;18.90;;;;;;;4.10;65.90;152416.09;5054648;28;20458;-75
2022/03/20 05:50:25;;;;;;;23.63;19.30;;;;;;;4.34;65.65;152477.94;5056587;28;20826;-76
2022/03/20 05:53:01;;;;;;;33.03;19.17;;;;;;;4.22;65.57;152447.00;5044705;28;20863;-76
2022/03/20 05:58:30;;;;;;;23.10;17.40;;;;;;;4.07;66.22;152408.38;5061604;28;20454;-76
2022/03/20 06:01:06;;;;;;;23.80;18.90;;;;;;;4.10;67.27;152417.34;5044775;28;20450;-76
2022/03/20 06:03:43;;;;;;;23.27;17.73;;;;;;;4.13;66.12;152425.09;5054395;28;20932;-76
2022/03/20 06:06:20;;;;;;;27.27;21.13;;;;;;;4.26;66.12;152457.31;5055755;28;20820;-76
2022/03/20 06:08:56;;;;;;;24.20;18.57;;;;;;;4.38;66.18;152488.22;5056267;28;20921;-76
2022/03/20 06:11:32;;;;;;;23.60;18.60;;;;;;;4.39;65.35;152490.81;5059963;28;20469;-76
2022/03/20 06:14:08;;;;;;;24.57;18.53;;;;;;;4.47;65.64;152511.41;5045270;28;20491;-75
2022/03/20 06:16:47;;;;;;;31.90;20.90;;;;;;;4.63;65.03;152552.59;5042217;28;21005;-76
2022/03/20 06:19:24;;;;;;;27.17;19.80;;;;;;;4.69;65.10;152568.06;5055691;28;20447;-76
2022/03/20 06:22:00;;;;;;;25.00;18.10;;;;;;;4.70;64.96;152569.38;5033924;28;20458;-75
2022/03/20 06:24:35;;;;;;;25.93;20.20;;;;;;;4.75;64.78;152583.56;5057584;28;20998;-75
2022/03/20 06:27:11;;;;;;;25.93;20.00;;;;;;;4.78;65.45;152590.00;5074769;28;20816;-76
2022/03/20 06:29:46;;;;;;;28.53;19.20;;;;;;;4.87;65.40;152613.22;5053504;28;20510;-76
2022/03/20 06:32:22;;;;;;;28.57;20.20;;;;;;;4.76;65.64;152584.84;5038736;28;20478;-76
2022/03/20 06:34:59;;;;;;;26.10;20.70;;;;;;;4.78;65.92;152590.00;5056413;28;20798;-76
2022/03/20 06:37:39;;;;;;;29.27;20.13;;;;;;;4.79;66.48;152592.59;5057574;28;20487;-75
2022/03/20 06:40:15;;;;;;;27.93;20.60;;;;;;;4.92;65.66;152627.34;5053668;28;20451;-76
2022/03/20 06:42:52;;;;;;;30.40;22.47;;;;;;;5.20;64.96;152696.94;5058547;28;20450;-77
2022/03/20 06:45:27;;;;;;;28.20;18.87;;;;;;;5.26;65.40;152713.75;5058472;28;20446;-76
2022/03/20 06:48:03;;;;;;;28.33;21.53;;;;;;;5.41;65.18;152752.41;5061163;28;20931;-76
2022/03/20 06:50:40;;;;;;;25.87;19.80;;;;;;;5.55;64.57;152787.22;5071256;28;20961;-76
2022/03/20 06:53:17;;;;;;;29.37;21.07;;;;;;;5.68;63.78;152820.75;5041766;28;20490;-76
2022/03/20 06:55:53;;;;;;;27.37;20.43;;;;;;;5.83;63.51;152859.41;5060158;28;20783;-76
2022/03/20 06:58:29;;;;;;;28.33;20.73;;;;;;;5.94;63.65;152886.56;5053669;28;21070;-76
2022/03/20 07:01:08;;;;;;;32.07;21.47;;;;;;;6.16;63.03;152942.03;5056782;28;20781;-76
2022/03/20 07:03:44;;;;;;;26.50;20.17;;;;;;;6.22;62.83;152957.53;5054550;28;20940;-76
2022/03/20 07:06:26;;;;;;;26.90;20.63;;;;;;;6.34;63.17;152988.47;5060635;28;20781;-76
2022/03/20 07:09:02;;;;;;;24.20;19.20;;;;;;;6.46;62.18;153019.47;5047986;28;20615;-76
2022/03/20 07:11:38;;;;;;;28.33;20.73;;;;;;;6.48;62.33;153024.63;5071588;28;20501;-76
2022/03/20 07:14:13;;;;;;;28.47;21.07;;;;;;;6.65;62.73;153068.47;5055620;28;20454;-76
2022/03/20 07:16:50;;;;;;;27.63;20.43;;;;;;;6.79;61.64;153103.31;5053854;28;21368;-76
2022/03/20 07:19:26;;;;;;;27.80;20.17;;;;;;;7.02;60.81;153164.00;5039138;28;20932;-77
2022/03/20 07:22:05;;;;;;;28.60;22.40;;;;;;;7.23;61.59;153216.91;5069880;28;20445;-77
2022/03/20 07:24:42;;;;;;;25.27;20.70;;;;;;;7.42;60.78;153266.00;5056053;28;20454;-77
2022/03/20 07:30:15;;;;;;;28.53;21.90;;;;;;;7.67;59.14;153330.59;5058691;28;20526;-76
2022/03/20 07:32:50;;;;;;;26.50;20.33;;;;;;;7.94;57.72;153399.09;5035892;28;20505;-76
2022/03/20 07:35:27;;;;;;;24.97;20.53;;;;;;;8.03;58.02;153422.31;5053680;28;20453;-75
2022/03/20 07:38:04;;;;;;;24.63;21.27;;;;;;;8.16;58.05;153455.91;5029527;28;20446;-75
2022/03/20 07:40:39;;;;;;;25.80;22.10;;;;;;;8.35;56.70;153503.78;5051224;28;20450;-76
2022/03/20 07:43:15;;;;;;;27.07;20.97;;;;;;;8.48;58.71;153538.69;5048470;28;20447;-76
2022/03/20 07:45:51;;;;;;;26.73;21.67;;;;;;;8.65;57.98;153581.34;5055053;28;20462;-75
2022/03/20 07:48:27;;;;;;;28.40;21.10;;;;;;;8.90;57.24;153644.66;5032694;28;20454;-75
2022/03/20 07:51:02;;;;;;;27.57;22.23;;;;;;;9.27;55.12;153739.06;5050849;28;20482;-75
2022/03/20 07:53:39;;;;;;;27.00;21.03;;;;;;;9.37;52.86;153766.22;5036150;28;21024;-75
2022/03/20 07:56:18;;;;;;;26.63;21.17;;;;;;;9.42;54.50;153777.91;5055868;28;20442;-75
2022/03/20 07:58:54;;;;;;;26.33;21.47;;;;;;;9.70;53.93;153851.63;5058483;28;20453;-75
2022/03/20 08:01:30;;;;;;;26.60;21.07;;;;;;;9.87;54.58;153893.06;5048532;28;20480;-76
2022/03/20 08:04:06;;;;;;;26.47;21.60;;;;;;;10.05;52.99;153939.63;5051074;28;20479;-76
2022/03/20 08:06:41;;;;;;;25.63;21.20;;;;;;;10.28;52.35;154000.50;5038546;28;20459;-76
2022/03/20 08:09:18;;;;;;;28.77;22.07;;;;;;;10.65;51.21;154095.03;5042875;28;20448;-76
2022/03/20 08:11:54;;;;;;;27.33;22.60;;;;;;;10.45;51.10;154043.25;5050759;28;20581;-76
2022/03/20 08:14:29;;;;;;;28.23;22.80;;;;;;;10.42;53.27;154035.47;5047272;28;20446;-76
2022/03/20 08:17:06;;;;;;;28.17;22.80;;;;;;;10.83;50.00;154141.63;5037836;28;20948;-76
2022/03/20 08:19:42;;;;;;;30.10;21.80;;;;;;;11.10;48.93;154208.97;5050190;28;20441;-76
2022/03/20 08:22:17;;;;;;;34.30;23.40;;;;;;;11.05;49.61;154196.03;5033321;28;20443;-75
2022/03/20 08:24:54;;;;;;;24.10;21.50;;;;;;;10.94;51.61;154170.13;5053416;28;20454;-76
2022/03/20 08:27:30;;;;;;;26.70;22.20;;;;;;;10.88;51.24;154154.56;5041802;28;20953;-76
2022/03/20 08:30:11;;;;;;;25.20;21.77;;;;;;;10.95;50.03;154172.75;5048600;28;20965;-76
2022/03/20 08:32:47;;;;;;;25.70;20.27;;;;;;;11.31;49.33;154264.69;5048823;28;20486;-76
2022/03/20 08:35:23;;;;;;;28.97;22.80;;;;;;;11.46;49.20;154302.28;5044110;28;20491;-76
2022/03/20 08:37:59;;;;;;;28.10;22.63;;;;;;;11.36;49.59;154276.34;5058373;28;20536;-76
2022/03/20 08:40:35;;;;;;;25.33;22.33;;;;;;;11.40;49.07;154286.72;5032385;28;21037;-76
2022/03/20 08:43:15;;;;;;;27.23;21.77;;;;;;;11.42;49.45;154291.91;5056881;28;20471;-76
2022/03/20 08:45:51;;;;;;;28.30;24.50;;;;;;;11.32;51.51;154267.31;5038652;28;20551;-76
2022/03/20 08:48:26;;;;;;;27.07;23.87;;;;;;;11.52;48.47;154319.09;5055313;28;20443;-76
2022/03/20 08:51:02;;;;;;;26.23;22.50;;;;;;;11.71;48.59;154365.81;5050486;28;20461;-77
2022/03/20 08:53:39;;;;;;;27.90;23.10;;;;;;;11.71;49.15;154365.81;5055682;28;20445;-77
2022/03/20 08:56:16;;;;;;;29.07;24.50;;;;;;;11.60;50.62;154338.53;5069755;28;20525;-77
2022/03/20 08:58:51;;;;;;;24.33;21.50;;;;;;;11.52;51.42;154317.81;5052110;28;20837;-74
2022/03/20 09:01:27;;;;;;;28.10;24.43;;;;;;;11.72;51.30;154369.72;5031441;28;20438;-75
2022/03/20 09:04:03;;;;;;;26.50;22.57;;;;;;;12.11;48.52;154470.81;5046812;28;20527;-77
2022/03/20 09:06:43;;;;;;;30.53;23.73;;;;;;;12.14;48.91;154478.59;5053430;28;20465;-77
2022/03/20 09:09:18;;;;;;;26.40;23.10;;;;;;;12.11;49.83;154470.81;5048768;28;20451;-77
2022/03/20 09:11:55;;;;;;;27.70;22.93;;;;;;;12.20;49.53;154492.84;5048214;28;21053;-77
2022/03/20 09:14:31;;;;;;;28.57;23.87;;;;;;;12.43;48.55;154551.19;5047628;28;20545;-77
2022/03/20 09:20:00;;;;;;;27.90;22.80;;;;;;;12.48;47.81;154564.16;5050317;28;20446;-77
2022/03/20 09:22:35;;;;;;;26.17;22.10;;;;;;;12.38;47.67;154539.53;5040378;28;20478;-77
2022/03/20 09:25:11;;;;;;;29.43;23.67;;;;;;;12.11;49.79;154470.81;5059445;28;21032;-77
2022/03/20 09:27:49;;;;;;;26.60;23.30;;;;;;;12.09;48.38;154464.31;5050028;28;20474;-77
2022/03/20 09:30:24;;;;;;;24.67;21.37;;;;;;;12.37;46.74;154535.59;5051287;28;20538;-77
2022/03/20 09:33:02;;;;;;;24.40;21.20;;;;;;;12.39;47.33;154540.84;5049169;28;20621;-77
2022/03/20 09:35:39;;;;;;;24.97;20.40;;;;;;;12.74;46.67;154631.56;5044526;28;20847;-77
2022/03/20 09:38:15;;;;;;;25.33;20.33;;;;;;;12.75;46.32;154634.19;5045821;28;20451;-77
2022/03/20 09:40:52;;;;;;;26.67;21.97;;;;;;;12.62;46.82;154600.47;5045519;28;20530;-76
2022/03/20 09:43:30;;;;;;;24.77;20.70;;;;;;;12.77;45.89;154639.38;5074341;28;20441;-77
2022/03/20 09:46:06;;;;;;;23.10;19.20;;;;;;;12.68;46.99;154616.03;5055888;28;20462;-77
2022/03/20 09:48:42;;;;;;;22.10;18.47;;;;;;;12.53;49.64;154577.09;5051695;28;20483;-77
2022/03/20 09:51:18;;;;;;;24.37;20.53;;;;;;;12.45;47.17;154556.34;5047215;28;20478;-77
2022/03/20 09:53:54;;;;;;;24.00;18.97;;;;;;;12.50;50.44;154569.31;5054833;28;20462;-75
2022/03/20 09:56:29;;;;;;;23.50;18.40;;;;;;;12.52;47.54;154574.53;5038879;28;20454;-75
2022/03/20 09:59:06;;;;;;;23.37;18.00;;;;;;;12.56;46.00;154584.91;5054132;28;20436;-77
2022/03/20 10:01:42;;;;;;;22.20;19.07;;;;;;;12.55;47.33;154583.59;5057509;28;20887;-77
2022/03/20 10:04:18;;;;;;;23.57;20.20;;;;;;;12.72;48.50;154626.41;5067984;28;20457;-77
2022/03/20 10:06:54;;;;;;;23.50;18.40;;;;;;;12.84;46.67;154657.50;5036145;28;20466;-77
2022/03/20 10:09:29;;;;;;;22.47;18.47;;;;;;;12.76;49.19;154636.81;5036601;28;20446;-77
2022/03/20 10:12:06;;;;;;;24.80;18.60;;;;;;;12.89;50.21;154670.53;5070104;28;20478;-77
2022/03/20 10:14:47;;;;;;;20.97;18.20;;;;;;;12.92;48.33;154678.25;5052724;28;20864;-75
2022/03/20 10:17:23;;;;;;;23.20;17.23;;;;;;;13.10;51.11;154723.75;5047758;28;20450;-75
2022/03/20 10:20:13;;;;;;;24.73;18.93;;;;;;;12.97;52.77;154691.28;5055479;28;20433;-75
2022/03/20 10:22:48;;;;;;;21.27;18.20;;;;;;;12.87;49.89;154665.28;5053215;28;20577;-76
2022/03/20 10:25:24;;;;;;;22.50;18.80;;;;;;;12.86;49.01;154662.72;5049210;28;20443;-76
2022/03/20 10:28:01;;;;;;;22.10;18.10;;;;;;;12.97;49.01;154691.28;5037944;28;20458;-76
2022/03/20 10:30:38;;;;;;;26.23;17.33;;;;;;;13.00;50.44;154699.03;5046213;28;20446;-76
2022/03/20 10:33:14;;;;;;;25.87;18.60;;;;;;;12.95;51.61;154686.06;5046276;28;20479;-76
2022/03/20 10:36:08;;;;;;;21.23;17.30;;;;;;;13.22;50.18;154756.19;5056842;28;20530;-76
2022/03/20 10:38:45;;;;;;;24.70;18.37;;;;;;;13.39;51.52;154800.31;5054368;28;20451;-76
2022/03/20 10:41:24;;;;;;;22.93;17.80;;;;;;;13.42;48.28;154806.81;5055322;28;20820;-76
2022/03/20 10:43:59;;;;;;;19.80;16.00;;;;;;;13.54;48.29;154836.63;5050933;28;20861;-76
2022/03/20 10:46:36;;;;;;;25.63;16.97;;;;;;;13.49;49.34;154823.66;5057158;28;20536;-75
2022/03/20 10:49:21;;;;;;;19.43;16.70;;;;;;;13.38;49.39;154797.69;5056422;28;20434;-75
2022/03/20 10:52:03;;;;;;;24.40;16.50;;;;;;;13.53;48.02;154835.31;5041225;28;20485;-75
2022/03/20 10:54:41;;;;;;;19.83;16.80;;;;;;;13.47;48.40;154818.47;5049362;28;20944;-75
2022/03/20 10:57:19;;;;;;;25.60;17.40;;;;;;;13.42;50.56;154808.06;5061522;28;21008;-75
2022/03/20 10:59:59;;;;;;;21.17;16.20;;;;;;;13.50;55.44;154827.56;5057679;28;20430;-75
2022/03/20 11:02:39;;;;;;;21.30;17.47;;;;;;;13.68;50.96;154872.97;5056040;28;20565;-75
2022/03/20 11:05:15;;;;;;;19.10;14.87;;;;;;;13.82;52.45;154910.59;5034668;28;20443;-75
2022/03/20 11:07:51;;;;;;;19.40;15.73;;;;;;;13.91;51.81;154932.66;5049831;28;20454;-75
2022/03/20 11:10:26;;;;;;;18.80;15.83;;;;;;;13.91;50.55;154932.66;5044151;28;20458;-75
2022/03/20 11:13:03;;;;;;;20.37;16.20;;;;;;;14.00;52.30;154956.06;5048638;28;20854;-76
2022/03/20 11:15:38;;;;;;;19.23;15.27;;;;;;;14.03;54.60;154963.84;5053540;28;20817;-76
2022/03/20 11:18:15;;;;;;;21.40;16.40;;;;;;;14.02;53.13;154961.25;5050445;28;20438;-76
2022/03/20 11:20:52;;;;;;;19.70;15.30;;;;;;;14.18;49.87;155002.78;5034740;28;20955;-76
2022/03/20 11:23:28;;;;;;;19.33;15.67;;;;;;;14.26;52.51;155022.25;5046940;28;20457;-76
2022/03/20 11:26:05;;;;;;;19.77;15.27;;;;;;;14.22;55.27;155013.16;5031984;28;20459;-76
2022/03/20 11:28:45;;;;;;;20.67;15.37;;;;;;;14.14;52.49;154992.38;5055680;28;20516;-76
2022/03/20 11:31:21;;;;;;;21.83;15.77;;;;;;;14.34;50.99;155044.41;5031709;28;20467;-76
2022/03/20 11:33:58;;;;;;;20.23;17.83;;;;;;;14.84;46.87;155171.66;5032892;28;20501;-76
2022/03/20 11:36:33;;;;;;;18.30;15.70;;;;;;;14.57;45.77;155102.81;5064852;28;21047;-76
2022/03/20 11:39:10;;;;;;;25.10;16.40;;;;;;;14.25;46.09;155020.94;5055748;28;20442;-76
2022/03/20 11:41:45;;;;;;;18.37;14.87;;;;;;;14.37;46.41;155052.19;5055415;28;20968;-76
2022/03/20 11:44:21;;;;;;;17.63;15.17;;;;;;;14.77;46.13;155153.50;5053014;28;20443;-76
2022/03/20 11:47:22;;;;;;;17.53;15.10;;;;;;;14.61;47.31;155114.50;5057143;28;20455;-76
2022/03/20 11:50:09;;;;;;;20.53;15.17;;;;;;;14.55;45.41;155097.63;5051639;28;20440;-76
2022/03/20 11:52:48;;;;;;;19.17;16.17;;;;;;;14.37;45.18;155050.88;5036361;28;20961;-76
2022/03/20 11:55:26;;;;;;;18.53;14.30;;;;;;;13.89;46.00;154927.50;5032849;28;20539;-76
2022/03/20 11:58:03;;;;;;;26.60;16.00;;;;;;;14.22;46.41;155011.84;5053396;28;20526;-76
2022/03/20 12:00:43;;;;;;;17.00;13.93;;;;;;;14.20;45.49;155007.97;5053257;28;20957;-76
2022/03/20 12:03:36;;;;;;;16.23;14.50;;;;;;;14.17;45.80;155000.19;5038611;28;20465;-78
2022/03/20 12:06:49;;;;;;;17.00;15.13;;;;;;;14.16;45.78;154996.31;5044558;28;20452;-77
2022/03/20 12:09:38;;;;;;;15.80;14.10;;;;;;;14.07;45.44;154974.22;5044598;28;20451;-77
2022/03/20 12:12:27;;;;;;;17.90;13.87;;;;;;;13.93;46.44;154939.16;5052332;28;21031;-77
2022/03/20 12:15:08;;;;;;;16.23;13.23;;;;;;;14.18;47.02;155002.78;5036552;28;20528;-75
2022/03/20 12:18:05;;;;;;;15.77;13.40;;;;;;;14.19;45.71;155005.34;5053576;28;20453;-78
2022/03/20 12:21:03;;;;;;;17.90;12.53;;;;;;;14.56;45.70;155101.50;5048548;28;20455;-76
2022/03/20 12:23:44;;;;;;;16.87;12.87;;;;;;;14.39;45.58;155057.38;5049196;28;20448;-76
2022/03/20 12:26:43;;;;;;;17.73;13.47;;;;;;;14.27;45.61;155026.13;5056110;28;20692;-76
2022/03/20 12:29:36;;;;;;;17.00;13.63;;;;;;;14.48;45.36;155080.72;5056570;28;20438;-76